Rainbow — WDC3878 — position and weather

sailwx.info

Track history (hours):
 
Tides and Currents Weather Stations Pressure Air Temp Water Temp Dewpoint Dewpoint Depression Visibility Wind Speed Wind Dir Waves Ship Positions

Rainbow

Owner: Providence Steamboat Co., PROVIDENCE, RI. More information available from US FCC via Universal Licensing System and Coast Guard Vessel Documentation Center.

Last reported at 2017-Oct-16 23:35 UTC. Time now 2017-Oct-17 01:03 UTC.
Position N 41°42' W 071°11'.

Length 28 m; draft 4 m.

Type: Tug. MMSI: 367015670.

Date/timePositionNaut miles runAvg speedWind from/ knotsBaromVisibWave heightAir tempDewpointWater temp
2017-Oct-16 23:35N 41°42' W 071°11'0 0.0
2017-Oct-16 23:30N 41°42' W 071°11'  
2017-Oct-14 18:41N 41°36' W 071°24'5 0.3
2017-Oct-14 03:21N 41°37' W 071°17'5 0.3
2017-Oct-13 12:13N 41°37' W 071°24'0 0.1
2017-Oct-13 11:59N 41°37' W 071°24'1 1.6
2017-Oct-13 11:30N 41°36' W 071°24'1 1.1
2017-Oct-13 10:49N 41°37' W 071°24'1 1.7
2017-Oct-13 10:27N 41°36' W 071°24'1 0.6
2017-Oct-13 08:17N 41°35' W 071°25'0 0.0
2017-Oct-13 07:32N 41°35' W 071°25'0 0.0
2017-Oct-13 07:24N 41°35' W 071°25'0 0.0
2017-Oct-13 07:00N 41°35' W 071°25'0 0.0
2017-Oct-13 05:32N 41°35' W 071°25'0 0.2
2017-Oct-13 05:30N 41°35' W 071°25'0 0.0
2017-Oct-13 04:28N 41°35' W 071°25'0 0.0
2017-Oct-12 23:35N 41°35' W 071°25'0 4.3
2017-Oct-12 23:30N 41°35' W 071°24'  
2017-Oct-10 16:08N 41°37' W 071°24'1 2.0
2017-Oct-10 15:49N 41°36' W 071°24'  
2017-Oct-08 08:04N 41°35' W 071°25'0 0.4
2017-Oct-08 07:56N 41°35' W 071°24'12 0.6
2017-Oct-07 11:06N 41°42' W 071°11'0 0.1
2017-Oct-07 11:00N 41°42' W 071°11'  
Track history (hours):
 
Tides and Currents Weather Stations Pressure Air Temp Water Temp Dewpoint Dewpoint Depression Visibility Wind Speed Wind Dir Waves Ship Positions

Rainbow

Owner: Providence Steamboat Co., PROVIDENCE, RI. More information available from US FCC via Universal Licensing System and Coast Guard Vessel Documentation Center.

Last reported at 2017-Oct-16 23:35 UTC. Time now 2017-Oct-17 01:03 UTC.
Position N 41°42' W 071°11'.

Length 28 m; draft 4 m.

Type: Tug. MMSI: 367015670.

Date/timePositionNaut miles runAvg speedWind from/ knotsBaromVisibWave heightAir tempDewpointWater temp
2017-Oct-16 23:35N 41°42' W 071°11'0 0.0
2017-Oct-16 23:30N 41°42' W 071°11'  
2017-Oct-14 18:41N 41°36' W 071°24'5 0.3
2017-Oct-14 03:21N 41°37' W 071°17'5 0.3
2017-Oct-13 12:13N 41°37' W 071°24'0 0.1
2017-Oct-13 11:59N 41°37' W 071°24'1 1.6
2017-Oct-13 11:30N 41°36' W 071°24'1 1.1
2017-Oct-13 10:49N 41°37' W 071°24'1 1.7
2017-Oct-13 10:27N 41°36' W 071°24'1 0.6
2017-Oct-13 08:17N 41°35' W 071°25'0 0.0
2017-Oct-13 07:32N 41°35' W 071°25'0 0.0
2017-Oct-13 07:24N 41°35' W 071°25'0 0.0
2017-Oct-13 07:00N 41°35' W 071°25'0 0.0
2017-Oct-13 05:32N 41°35' W 071°25'0 0.2
2017-Oct-13 05:30N 41°35' W 071°25'0 0.0
2017-Oct-13 04:28N 41°35' W 071°25'0 0.0
2017-Oct-12 23:35N 41°35' W 071°25'0 4.3
2017-Oct-12 23:30N 41°35' W 071°24'  
2017-Oct-10 16:08N 41°37' W 071°24'1 2.0
2017-Oct-10 15:49N 41°36' W 071°24'  
2017-Oct-08 08:04N 41°35' W 071°25'0 0.4
2017-Oct-08 07:56N 41°35' W 071°24'12 0.6
2017-Oct-07 11:06N 41°42' W 071°11'0 0.1
2017-Oct-07 11:00N 41°42' W 071°11'  

Dump ship's entire track history